createdAt,value
2018-01-20T05:00:29.014Z,2.46
2018-01-20T05:00:54.502Z,2.53
2018-01-20T05:01:19.975Z,2.64
2018-01-20T05:01:45.476Z,2.61
2018-01-20T05:02:10.982Z,2.6
2018-01-20T05:02:36.495Z,2.64
2018-01-20T05:03:01.989Z,2.6
2018-01-20T05:03:27.502Z,2.6
2018-01-20T05:03:52.994Z,2.65
2018-01-20T05:04:41.307Z,2.62
2018-01-20T05:05:06.812Z,2.61
2018-01-20T05:05:32.310Z,2.65
2018-01-20T05:05:57.787Z,2.6
2018-01-20T05:06:23.294Z,2.64
2018-01-20T05:06:48.766Z,2.61
2018-01-20T05:07:14.250Z,2.64
2018-01-20T05:07:39.725Z,2.65
2018-01-20T05:08:05.204Z,2.61
2018-01-20T05:08:30.656Z,2.62
2018-01-20T05:08:56.152Z,2.64
2018-01-20T05:09:21.605Z,2.61
2018-01-20T05:09:47.145Z,2.62
2018-01-20T05:10:12.641Z,2.57
2018-01-20T05:11:11.131Z,2.62
2018-01-20T05:11:36.616Z,2.6
2018-01-20T05:12:02.144Z,2.6
2018-01-20T05:12:27.636Z,2.61
2018-01-20T05:12:53.104Z,2.6
2018-01-20T05:13:18.608Z,2.61
2018-01-20T05:13:44.122Z,2.65
2018-01-20T05:14:09.630Z,2.6
2018-01-20T05:14:35.104Z,2.64
2018-01-20T05:15:00.597Z,2.64
2018-01-20T05:15:26.049Z,2.64
2018-01-20T05:15:51.540Z,2.72
2018-01-20T05:16:17.031Z,2.72
2018-01-20T05:16:42.506Z,2.67
2018-01-20T05:17:30.816Z,2.57
2018-01-20T05:17:56.310Z,2.64
2018-01-20T05:18:21.787Z,2.61
2018-01-20T05:18:47.271Z,2.67
2018-01-20T05:19:12.734Z,2.69
2018-01-20T05:19:38.175Z,2.64
2018-01-20T05:20:03.647Z,2.68
2018-01-20T05:20:29.161Z,2.68
2018-01-20T05:20:54.615Z,2.67
2018-01-20T05:21:20.071Z,2.69
2018-01-20T05:21:45.563Z,2.71
2018-01-20T05:22:11.044Z,2.61
2018-01-20T05:22:36.520Z,2.65
2018-01-20T05:23:29.930Z,2.75
2018-01-20T05:23:55.413Z,2.68
2018-01-20T05:24:20.877Z,2.71
2018-01-20T05:25:09.159Z,2.64
2018-01-20T05:25:34.650Z,2.69
2018-01-20T05:26:00.153Z,2.68
2018-01-20T05:26:25.657Z,2.68
2018-01-20T05:26:51.128Z,2.71
2018-01-20T05:27:16.606Z,2.74
2018-01-20T05:27:42.074Z,2.74
2018-01-20T05:28:40.628Z,2.77
2018-01-20T05:29:06.115Z,2.74
2018-01-20T05:29:31.613Z,2.77
2018-01-20T05:29:57.088Z,2.77
2018-01-20T05:30:22.548Z,2.72
2018-01-20T05:30:48.011Z,2.74
2018-01-20T05:31:13.470Z,2.72
2018-01-20T05:31:38.966Z,2.67
2018-01-20T05:32:04.475Z,2.75
2018-01-20T05:32:29.967Z,2.71
2018-01-20T05:32:55.433Z,2.82
2018-01-20T05:33:20.923Z,2.8
2018-01-20T05:33:46.406Z,2.69
2018-01-20T05:34:11.898Z,2.75
2018-01-20T05:34:37.363Z,2.69
2018-01-20T05:35:02.859Z,2.79
2018-01-20T05:35:28.378Z,2.79
2018-01-20T05:35:53.850Z,2.74
2018-01-20T05:36:19.370Z,2.75
2018-01-20T05:36:44.949Z,2.83
2018-01-20T05:37:10.427Z,2.79
2018-01-20T05:37:35.927Z,2.69
2018-01-20T05:38:01.379Z,2.69
2018-01-20T05:38:26.848Z,2.71
2018-01-20T05:38:52.348Z,2.85
2018-01-20T05:39:17.839Z,2.72
2018-01-20T05:39:43.329Z,2.72
2018-01-20T05:40:08.808Z,2.74
2018-01-20T05:40:34.311Z,2.74
2018-01-20T05:40:59.784Z,2.68
2018-01-20T05:41:25.302Z,2.69
2018-01-20T05:41:50.755Z,2.77
2018-01-20T05:42:16.227Z,2.71
2018-01-20T05:42:41.716Z,2.75
2018-01-20T05:43:07.217Z,2.79
2018-01-20T05:43:32.682Z,2.83
2018-01-20T05:43:58.155Z,2.79
2018-01-20T05:44:23.713Z,2.82
2018-01-20T05:44:49.214Z,2.8
2018-01-20T05:45:14.729Z,2.74
2018-01-20T05:45:40.214Z,2.85
2018-01-20T05:46:05.724Z,2.9
2018-01-20T05:46:31.232Z,2.75
2018-01-20T05:46:56.683Z,2.8
2018-01-20T05:47:22.159Z,2.74
2018-01-20T05:47:47.672Z,2.79
2018-01-20T05:48:13.176Z,2.77
2018-01-20T05:48:38.671Z,2.83
2018-01-20T05:49:04.186Z,2.82
2018-01-20T05:49:57.633Z,2.79
2018-01-20T05:50:23.122Z,2.85
2018-01-20T05:50:48.638Z,2.8
2018-01-20T05:51:14.140Z,2.85
2018-01-20T05:51:39.710Z,2.79
2018-01-20T05:52:05.239Z,2.8
2018-01-20T05:52:30.714Z,2.83
2018-01-20T05:52:56.209Z,2.8
2018-01-20T05:53:21.706Z,2.79
2018-01-20T05:53:47.216Z,2.85
2018-01-20T05:54:12.674Z,2.85
2018-01-20T05:54:38.159Z,2.75
2018-01-20T05:55:03.597Z,2.83
2018-01-20T05:55:29.122Z,2.85
2018-01-20T05:55:54.593Z,2.75
2018-01-20T05:56:20.083Z,2.79
2018-01-20T05:56:45.568Z,2.8
2018-01-20T05:57:11.049Z,2.79
2018-01-20T05:57:36.555Z,2.82
2018-01-20T05:58:02.088Z,2.79
2018-01-20T05:58:27.614Z,2.8
2018-01-20T05:58:53.121Z,2.85
2018-01-20T05:59:18.602Z,2.77
2018-01-20T05:59:44.112Z,2.83
2018-01-20T06:00:09.598Z,2.75
2018-01-20T06:01:14.070Z,2.82
2018-01-20T06:01:39.503Z,2.8
2018-01-20T06:02:04.992Z,2.77
2018-01-20T06:02:30.472Z,2.82
2018-01-20T06:02:56.189Z,2.85
2018-01-20T06:03:21.672Z,2.86
2018-01-20T06:03:47.151Z,2.8
2018-01-20T06:04:12.678Z,2.75
2018-01-20T06:05:22.075Z,2.77
2018-01-20T06:05:47.568Z,2.85
2018-01-20T06:06:13.041Z,2.8
2018-01-20T06:06:38.498Z,2.79
2018-01-20T06:07:03.951Z,2.82
2018-01-20T06:07:29.413Z,2.83
2018-01-20T06:08:23.630Z,2.85
2018-01-20T06:08:49.122Z,2.83
2018-01-20T06:09:14.595Z,2.82
2018-01-20T06:09:40.085Z,2.86
2018-01-20T06:10:05.594Z,2.86
2018-01-20T06:10:31.065Z,2.77
2018-01-20T06:10:56.544Z,2.8
2018-01-20T06:11:55.055Z,2.79
2018-01-20T06:12:20.556Z,2.87
2018-01-20T06:12:46.047Z,2.82
2018-01-20T06:13:11.542Z,2.85
2018-01-20T06:13:37.061Z,2.85
2018-01-20T06:14:02.551Z,2.86
2018-01-20T06:14:28.040Z,2.86
2018-01-20T06:14:53.572Z,2.8
2018-01-20T06:15:18.994Z,2.86
2018-01-20T06:15:44.487Z,2.82
2018-01-20T06:16:10.000Z,2.82
2018-01-20T06:16:35.446Z,2.85
2018-01-20T06:17:00.938Z,2.82
2018-01-20T06:17:26.413Z,2.83
2018-01-20T06:17:51.931Z,2.8
2018-01-20T06:18:17.404Z,2.77
2018-01-20T06:18:42.886Z,2.68
2018-01-20T06:19:08.370Z,2.75
2018-01-20T06:19:33.854Z,2.83
2018-01-20T06:19:59.353Z,2.8
2018-01-20T06:20:24.819Z,2.79
2018-01-20T06:20:50.305Z,2.75
2018-01-20T06:21:15.756Z,2.83
2018-01-20T06:22:04.051Z,2.77
2018-01-20T06:22:29.548Z,2.82
2018-01-20T06:22:55.048Z,2.75
2018-01-20T06:23:20.524Z,2.85
2018-01-20T06:23:46.019Z,2.83
2018-01-20T06:24:11.522Z,2.82
2018-01-20T06:24:37.009Z,2.74
2018-01-20T06:25:02.498Z,2.83
2018-01-20T06:25:27.990Z,2.68
2018-01-20T06:25:53.450Z,2.82
2018-01-20T06:26:18.963Z,2.83
2018-01-20T06:27:12.384Z,2.83
2018-01-20T06:27:37.871Z,2.77
2018-01-20T06:28:03.366Z,2.83
2018-01-20T06:28:28.859Z,2.79
2018-01-20T06:28:54.377Z,2.8
2018-01-20T06:29:19.941Z,2.82
2018-01-20T06:30:18.424Z,2.8
2018-01-20T06:30:43.902Z,2.83
2018-01-20T06:31:09.381Z,2.86
2018-01-20T06:31:34.884Z,2.87
2018-01-20T06:32:00.377Z,2.86
2018-01-20T06:32:25.872Z,2.8
2018-01-20T06:32:51.357Z,2.8
2018-01-20T06:33:16.827Z,2.79
2018-01-20T06:33:42.315Z,2.85
2018-01-20T06:34:07.795Z,2.85
2018-01-20T06:35:01.246Z,2.83
2018-01-20T06:35:26.748Z,2.79
2018-01-20T06:35:52.244Z,2.86
2018-01-20T06:36:17.721Z,2.79
2018-01-20T06:36:43.197Z,2.85
2018-01-20T06:37:08.718Z,2.8
2018-01-20T06:37:34.185Z,2.85
2018-01-20T06:37:59.715Z,2.86
2018-01-20T06:38:25.208Z,2.85
2018-01-20T06:38:50.722Z,2.87
2018-01-20T06:39:16.248Z,2.89
2018-01-20T06:39:41.725Z,2.85
2018-01-20T06:40:07.190Z,2.82
2018-01-20T06:40:32.668Z,2.83
2018-01-20T06:40:58.141Z,2.86
2018-01-20T06:41:23.612Z,2.86
2018-01-20T06:41:49.115Z,2.85
2018-01-20T06:42:14.610Z,2.86
2018-01-20T06:42:40.098Z,2.86
2018-01-20T06:43:05.593Z,2.89
2018-01-20T06:43:31.080Z,2.87
2018-01-20T06:43:56.589Z,2.85
2018-01-20T06:44:22.074Z,2.86
2018-01-20T06:44:47.573Z,2.9
2018-01-20T06:45:13.059Z,2.9
2018-01-20T06:45:38.524Z,2.87
2018-01-20T06:46:04.069Z,2.89
2018-01-20T06:47:07.680Z,2.9
2018-01-20T06:47:33.145Z,2.85
2018-01-20T06:47:58.652Z,2.89
2018-01-20T06:48:24.145Z,2.89
2018-01-20T06:48:49.625Z,2.86
2018-01-20T06:49:15.129Z,2.9
2018-01-20T06:49:40.612Z,2.87
2018-01-20T06:50:06.120Z,2.85
2018-01-20T06:50:31.613Z,2.9
2018-01-20T06:50:57.103Z,2.89
2018-01-20T06:51:22.597Z,2.86
2018-01-20T06:51:48.105Z,2.9
2018-01-20T06:52:13.581Z,2.87
2018-01-20T06:52:39.080Z,2.92
2018-01-20T06:53:04.577Z,2.87
2018-01-20T06:53:30.049Z,2.85
2018-01-20T06:53:55.515Z,2.93
2018-01-20T06:54:21.002Z,2.92
2018-01-20T06:54:46.514Z,2.9
2018-01-20T06:55:39.920Z,2.9
2018-01-20T06:56:05.408Z,2.92
2018-01-20T06:56:30.887Z,2.9
2018-01-20T06:57:34.458Z,2.87
2018-01-20T06:57:59.955Z,2.92
2018-01-20T06:58:25.474Z,2.9
2018-01-20T06:58:50.966Z,2.92
2018-01-20T06:59:16.467Z,2.87
2018-01-20T06:59:41.967Z,2.92
2018-01-20T07:00:07.444Z,2.93
2018-01-20T07:00:32.936Z,2.92
2018-01-20T07:00:58.424Z,2.89
2018-01-20T07:01:23.955Z,2.93
2018-01-20T07:01:49.407Z,2.89
2018-01-20T07:02:14.925Z,2.85
2018-01-20T07:02:40.404Z,3
2018-01-20T07:03:05.888Z,2.9
2018-01-20T07:03:31.382Z,2.9
2018-01-20T07:03:56.906Z,2.9
2018-01-20T07:04:22.415Z,2.93
2018-01-20T07:04:47.901Z,2.87
2018-01-20T07:05:13.409Z,2.9
2018-01-20T07:05:38.887Z,2.89
2018-01-20T07:06:04.347Z,2.9
2018-01-20T07:06:29.839Z,2.9
2018-01-20T07:06:55.330Z,2.89
2018-01-20T07:07:53.842Z,2.9
2018-01-20T07:08:19.329Z,2.95
2018-01-20T07:08:44.793Z,2.9
2018-01-20T07:09:10.294Z,2.92
2018-01-20T07:09:35.850Z,2.92
2018-01-20T07:10:01.388Z,2.93
2018-01-20T07:10:26.889Z,2.98
2018-01-20T07:10:52.373Z,3
2018-01-20T07:11:17.852Z,2.97
2018-01-20T07:11:43.331Z,2.92
2018-01-20T07:12:31.620Z,2.92
2018-01-20T07:13:19.944Z,2.95
2018-01-20T07:13:45.442Z,2.92
2018-01-20T07:14:10.946Z,2.98
2018-01-20T07:14:36.420Z,2.97
2018-01-20T07:15:01.929Z,2.92
2018-01-20T07:15:27.401Z,3.01
2018-01-20T07:15:52.901Z,2.98
2018-01-20T07:16:18.360Z,3.04
2018-01-20T07:16:43.870Z,3.05
2018-01-20T07:17:09.334Z,3.04
2018-01-20T07:17:34.777Z,3.05
2018-01-20T07:18:00.277Z,3.07
2018-01-20T07:18:25.711Z,3.04
2018-01-20T07:18:51.187Z,3.05
2018-01-20T07:19:49.704Z,3.05
2018-01-20T07:20:15.189Z,3.07
2018-01-20T07:20:40.684Z,3.05
2018-01-20T07:21:06.156Z,3.11
2018-01-20T07:21:31.611Z,3.05
2018-01-20T07:21:57.099Z,3.05
2018-01-20T07:22:22.565Z,3.04
2018-01-20T07:22:48.054Z,3.04
2018-01-20T07:23:13.542Z,3.03
2018-01-20T07:23:39.029Z,3.07
2018-01-20T07:24:04.491Z,3.08
2018-01-20T07:24:29.992Z,3.1
2018-01-20T07:24:55.473Z,3.05
2018-01-20T07:25:20.950Z,3.04
2018-01-20T07:25:46.473Z,3.14
2018-01-20T07:26:12.012Z,3.08
2018-01-20T07:26:37.512Z,3.11
2018-01-20T07:27:02.976Z,3.08
2018-01-20T07:27:28.474Z,3.1
2018-01-20T07:27:53.947Z,3.05
2018-01-20T07:28:19.460Z,3.08
2018-01-20T07:29:13.865Z,3.1
2018-01-20T07:29:39.335Z,3.01
2018-01-20T07:30:48.040Z,3.08
2018-01-20T07:31:13.549Z,3.07
2018-01-20T07:31:39.054Z,3.01
2018-01-20T07:32:04.545Z,3.08
2018-01-20T07:32:30.016Z,3.05
2018-01-20T07:32:55.488Z,3.05
2018-01-20T07:33:20.958Z,3.07
2018-01-20T07:33:46.477Z,3.08
2018-01-20T07:34:11.952Z,3.05
2018-01-20T07:34:37.433Z,3.04
2018-01-20T07:35:02.899Z,3.05
2018-01-20T07:35:28.399Z,3.04
2018-01-20T07:35:53.890Z,3.11
2018-01-20T07:36:19.378Z,3.07
2018-01-20T07:36:44.873Z,3.07
2018-01-20T07:37:10.360Z,3.05
2018-01-20T07:37:35.880Z,3.03
2018-01-20T07:38:39.506Z,3.04
2018-01-20T07:39:04.991Z,3.07
2018-01-20T07:39:30.490Z,3.07
2018-01-20T07:40:39.177Z,3.1
2018-01-20T07:41:04.792Z,3.11
2018-01-20T07:41:30.295Z,3.04
2018-01-20T07:41:55.819Z,3.11
2018-01-20T07:42:21.282Z,3.05
2018-01-20T07:42:46.771Z,3.07
2018-01-20T07:43:12.261Z,3.11
2018-01-20T07:43:37.748Z,3.07
2018-01-20T07:44:31.172Z,3.04
2018-01-20T07:44:56.664Z,3.07
2018-01-20T07:45:22.162Z,3.11
2018-01-20T07:45:47.645Z,3.13
2018-01-20T07:46:13.148Z,3.08
2018-01-20T07:46:38.662Z,3.1
2018-01-20T07:47:04.111Z,3.14
2018-01-20T07:47:29.633Z,3.16
2018-01-20T07:47:55.097Z,3.04
2018-01-20T07:48:20.621Z,3.08
2018-01-20T07:48:46.103Z,3.04
2018-01-20T07:49:11.593Z,3.1
2018-01-20T07:49:37.161Z,3.08
2018-01-20T07:50:02.631Z,3.05
2018-01-20T07:50:28.082Z,3.08
2018-01-20T07:50:53.638Z,3.18
2018-01-20T07:51:19.122Z,3.07
2018-01-20T07:51:44.630Z,3.14
2018-01-20T07:52:10.164Z,3.1
2018-01-20T07:52:35.663Z,3.11
2018-01-20T07:53:01.130Z,3.1
2018-01-20T07:53:26.597Z,3.18
2018-01-20T07:53:52.084Z,3.13
2018-01-20T07:54:17.595Z,3.13
2018-01-20T07:54:43.056Z,3.19
2018-01-20T07:55:08.532Z,3.18
2018-01-20T07:55:34.058Z,3.1
2018-01-20T07:55:59.624Z,3.14
2018-01-20T07:56:25.090Z,3.19
2018-01-20T07:56:50.669Z,3.18
2018-01-20T07:57:39.019Z,3.18
2018-01-20T07:58:04.527Z,3.16
2018-01-20T07:58:30.000Z,3.16
2018-01-20T07:58:55.494Z,3.16
2018-01-20T07:59:20.992Z,3.18
2018-01-20T07:59:46.521Z,3.14
2018-01-20T08:00:11.980Z,3.14
2018-01-20T08:00:37.496Z,3.19
2018-01-20T08:01:02.967Z,3.22
2018-01-20T08:01:51.262Z,3.16
2018-01-20T08:02:16.758Z,3.13
2018-01-20T08:02:42.332Z,3.26
2018-01-20T08:03:07.814Z,3.14
2018-01-20T08:03:33.329Z,3.21
2018-01-20T08:03:58.826Z,3.28
2018-01-20T08:04:24.309Z,3.25
2018-01-20T08:04:49.849Z,3.21
2018-01-20T08:05:38.152Z,3.29
2018-01-20T08:06:03.649Z,3.25
2018-01-20T08:07:07.240Z,3.23
2018-01-20T08:07:32.731Z,3.26
2018-01-20T08:07:58.217Z,3.23
2018-01-20T08:08:23.720Z,3.26
2018-01-20T08:08:49.207Z,3.21
2018-01-20T08:09:14.692Z,3.26
2018-01-20T08:09:40.215Z,3.23
2018-01-20T08:10:05.746Z,3.23
2018-01-20T08:10:31.267Z,3.23
2018-01-20T08:10:56.745Z,3.23
2018-01-20T08:11:22.332Z,3.23
2018-01-20T08:11:47.821Z,3.22
2018-01-20T08:12:13.330Z,3.26
2018-01-20T08:12:38.838Z,3.29
2018-01-20T08:13:04.313Z,3.28
2018-01-20T08:13:29.804Z,3.28
2018-01-20T08:13:55.268Z,3.26
2018-01-20T08:14:20.794Z,3.34
2018-01-20T08:14:46.287Z,3.32
2018-01-20T08:15:11.796Z,3.36
2018-01-20T08:15:37.247Z,3.26
2018-01-20T08:16:02.772Z,3.31
2018-01-20T08:16:28.253Z,3.26
2018-01-20T08:16:53.727Z,3.36
2018-01-20T08:17:19.241Z,3.29
2018-01-20T08:17:44.702Z,3.29
2018-01-20T08:18:10.173Z,3.31
2018-01-20T08:18:35.648Z,3.41
2018-01-20T08:19:01.159Z,3.31
2018-01-20T08:19:26.657Z,3.32
2018-01-20T08:19:52.145Z,3.4
2018-01-20T08:20:17.603Z,3.34
2018-01-20T08:20:43.102Z,3.37
2018-01-20T08:21:51.777Z,3.29
2018-01-20T08:22:17.262Z,3.4
2018-01-20T08:22:42.749Z,3.36
2018-01-20T08:23:08.228Z,3.34
2018-01-20T08:23:33.728Z,3.32
2018-01-20T08:23:59.212Z,3.34
2018-01-20T08:24:24.696Z,3.32
2018-01-20T08:25:18.132Z,3.36
2018-01-20T08:25:43.602Z,3.37
2018-01-20T08:26:09.107Z,3.36
2018-01-20T08:26:34.604Z,3.37
2018-01-20T08:27:00.093Z,3.4
2018-01-20T08:27:25.575Z,3.34
2018-01-20T08:27:51.062Z,3.36
2018-01-20T08:28:16.536Z,3.37
2018-01-20T08:28:42.007Z,3.32
2018-01-20T08:29:07.515Z,3.41
2018-01-20T08:29:32.963Z,3.44
2018-01-20T08:29:58.457Z,3.44
2018-01-20T08:30:24.003Z,3.44
2018-01-20T08:30:49.529Z,3.37
2018-01-20T08:31:15.007Z,3.41
2018-01-20T08:31:40.495Z,3.41
2018-01-20T08:32:05.984Z,3.42
2018-01-20T08:32:31.448Z,3.53
2018-01-20T08:32:56.989Z,3.55
2018-01-20T08:33:22.479Z,3.45
2018-01-20T08:33:47.994Z,3.51
2018-01-20T08:34:13.443Z,3.48
2018-01-20T08:34:38.953Z,3.51
2018-01-20T08:35:04.420Z,3.44
2018-01-20T08:35:29.877Z,3.56
2018-01-20T08:35:55.336Z,3.53
2018-01-20T08:36:20.810Z,3.56
2018-01-20T08:36:46.288Z,3.58
2018-01-20T08:37:11.790Z,3.58
2018-01-20T08:37:37.283Z,3.59
2018-01-20T08:38:02.756Z,3.59
2018-01-20T08:39:11.459Z,3.53
2018-01-20T08:39:36.940Z,3.58
2018-01-20T08:40:02.419Z,3.63
2018-01-20T08:40:27.914Z,3.63
2018-01-20T08:40:53.378Z,3.59
2018-01-20T08:41:18.858Z,3.63
2018-01-20T08:41:44.357Z,3.6
2018-01-20T08:42:09.870Z,3.62
2018-01-20T08:42:35.372Z,3.76
2018-01-20T08:43:00.894Z,3.78
2018-01-20T08:43:26.423Z,3.74
2018-01-20T08:43:51.902Z,3.83
2018-01-20T08:44:17.374Z,3.81
2018-01-20T08:44:42.871Z,3.83
2018-01-20T08:45:08.338Z,3.8
2018-01-20T08:45:33.788Z,3.86
2018-01-20T08:45:59.272Z,3.84
2018-01-20T08:46:24.784Z,3.87
2018-01-20T08:46:50.268Z,3.87
2018-01-20T08:47:15.761Z,3.88
2018-01-20T08:47:41.254Z,3.87
2018-01-20T08:48:06.689Z,3.86
2018-01-20T08:48:32.188Z,3.86
2018-01-20T08:48:57.687Z,3.95
2018-01-20T08:49:23.159Z,3.88
2018-01-20T08:49:48.640Z,3.86
2018-01-20T08:50:14.118Z,3.88
2018-01-20T08:51:22.832Z,3.87
2018-01-20T08:51:48.345Z,3.84
2018-01-20T08:52:13.831Z,3.84
2018-01-20T08:53:22.488Z,3.86
2018-01-20T08:53:48.006Z,3.92
2018-01-20T08:54:13.507Z,3.88
2018-01-20T08:54:38.971Z,3.95
2018-01-20T08:55:27.261Z,3.91
2018-01-20T08:55:52.734Z,3.94
2018-01-20T08:56:18.263Z,3.88
2018-01-20T08:56:43.698Z,3.92
2018-01-20T08:57:09.202Z,3.91
2018-01-20T08:57:34.863Z,3.83
2018-01-20T08:58:00.498Z,3.96
2018-01-20T08:58:25.982Z,3.91
2018-01-20T08:58:51.508Z,3.96
2018-01-20T08:59:17.001Z,3.87
2018-01-20T08:59:42.562Z,3.86
2018-01-20T09:00:08.046Z,3.94
2018-01-20T09:00:33.533Z,3.95
2018-01-20T09:00:59.063Z,3.94
2018-01-20T09:01:24.541Z,3.95
2018-01-20T09:01:50.036Z,3.95
2018-01-20T09:02:15.509Z,3.87
2018-01-20T09:02:41.047Z,3.98
2018-01-20T09:03:06.482Z,3.88
2018-01-20T09:03:31.954Z,3.94
2018-01-20T09:03:57.433Z,3.92
2018-01-20T09:04:22.920Z,3.91
2018-01-20T09:04:48.395Z,3.87
2018-01-20T09:05:13.859Z,3.87
2018-01-20T09:05:39.440Z,3.87
2018-01-20T09:06:04.881Z,3.86
2018-01-20T09:06:30.355Z,3.91
2018-01-20T09:06:55.856Z,3.87
2018-01-20T09:07:21.341Z,3.99
2018-01-20T09:07:46.802Z,3.86
2018-01-20T09:08:12.271Z,3.96
2018-01-20T09:08:37.770Z,3.94
2018-01-20T09:09:03.236Z,3.86
2018-01-20T09:09:28.684Z,3.99
2018-01-20T09:09:54.255Z,4.01
2018-01-20T09:10:19.703Z,3.96
2018-01-20T09:10:45.188Z,4.05
2018-01-20T09:11:10.738Z,3.95
2018-01-20T09:11:36.145Z,4.04
2018-01-20T09:12:01.689Z,4.06
2018-01-20T09:12:27.153Z,3.99
2018-01-20T09:12:52.644Z,3.98
2018-01-20T09:13:18.165Z,4.08
2018-01-20T09:13:43.648Z,4.12
2018-01-20T09:14:09.217Z,4.14
2018-01-20T09:14:34.701Z,4.14
2018-01-20T09:15:39.282Z,4.26
2018-01-20T09:16:04.782Z,4.24
2018-01-20T09:16:30.287Z,4.19
2018-01-20T09:16:55.787Z,4.16
2018-01-20T09:17:21.286Z,4.19
2018-01-20T09:17:46.774Z,4.2
2018-01-20T09:18:12.240Z,4.23
2018-01-20T09:18:37.742Z,4.23
2018-01-20T09:19:03.231Z,4.28
2018-01-20T09:19:28.735Z,4.31
2018-01-20T09:19:54.235Z,4.32
2018-01-20T09:20:19.744Z,4.31
2018-01-20T09:20:45.221Z,4.22
2018-01-20T09:21:10.801Z,4.2
2018-01-20T09:21:36.436Z,4.31
2018-01-20T09:22:01.968Z,4.23
2018-01-20T09:22:27.382Z,4.28
2018-01-20T09:22:52.926Z,4.22
2018-01-20T09:23:18.409Z,4.34
2018-01-20T09:23:43.924Z,4.28
2018-01-20T09:24:09.448Z,4.31
2018-01-20T09:25:08.925Z,4.32
2018-01-20T09:25:34.403Z,4.34
2018-01-20T09:25:59.881Z,4.35
2018-01-20T09:26:25.421Z,4.31
2018-01-20T09:26:50.912Z,4.31
2018-01-20T09:27:44.522Z,4.28
2018-01-20T09:28:10.017Z,4.31
2018-01-20T09:28:35.480Z,4.32
2018-01-20T09:29:00.968Z,4.3
2018-01-20T09:29:26.464Z,4.35
2018-01-20T09:29:51.919Z,4.35
2018-01-20T09:30:17.419Z,4.28
2018-01-20T09:30:42.860Z,4.32
2018-01-20T09:31:08.375Z,4.34
2018-01-20T09:31:33.862Z,4.34
2018-01-20T09:32:37.477Z,4.31
2018-01-20T09:33:02.974Z,4.35
2018-01-20T09:33:28.467Z,4.3
2018-01-20T09:33:53.904Z,4.31
2018-01-20T09:34:19.383Z,4.3
2018-01-20T09:34:44.875Z,4.3
2018-01-20T09:35:10.387Z,4.3
2018-01-20T09:35:35.807Z,4.26
2018-01-20T09:36:01.287Z,4.3
2018-01-20T09:36:26.787Z,4.2
2018-01-20T09:36:52.290Z,4.31
2018-01-20T09:37:17.764Z,4.31
2018-01-20T09:37:43.280Z,4.32
2018-01-20T09:38:08.756Z,4.24
2018-01-20T09:38:34.221Z,4.23
2018-01-20T09:38:59.670Z,4.32
2018-01-20T09:39:58.528Z,4.35
2018-01-20T09:40:24.019Z,4.31
2018-01-20T09:40:49.591Z,4.3
2018-01-20T09:41:15.061Z,4.32
2018-01-20T09:41:40.562Z,4.28
2018-01-20T09:42:06.118Z,4.26
2018-01-20T09:42:31.545Z,4.22
2018-01-20T09:42:57.057Z,4.23
2018-01-20T09:43:22.680Z,4.12
2018-01-20T09:43:48.058Z,4.13
2018-01-20T09:44:13.764Z,4.19
2018-01-20T09:44:39.251Z,4.2
2018-01-20T09:45:04.759Z,4.2
2018-01-20T09:45:30.286Z,4.14
2018-01-20T09:45:55.810Z,4.13
2018-01-20T09:46:21.301Z,4.14
2018-01-20T09:46:46.794Z,4.16
2018-01-20T09:47:45.319Z,4.08
2018-01-20T09:48:10.829Z,4.12
2018-01-20T09:48:36.371Z,4.08
2018-01-20T09:49:01.885Z,4.02
2018-01-20T09:49:27.387Z,3.95
2018-01-20T09:49:52.809Z,3.98
2018-01-20T09:50:18.290Z,3.98
2018-01-20T09:50:43.797Z,3.88
2018-01-20T09:51:09.368Z,3.94
2018-01-20T09:51:34.850Z,3.96
2018-01-20T09:52:00.368Z,4.01
2018-01-20T09:52:25.860Z,3.96
2018-01-20T09:52:51.409Z,3.94
2018-01-20T09:53:16.935Z,4.02
2018-01-20T09:53:42.434Z,3.95
2018-01-20T09:54:07.881Z,3.95
2018-01-20T09:54:33.341Z,4.02
2018-01-20T09:54:58.853Z,3.96
2018-01-20T09:55:24.376Z,4.04
2018-01-20T09:55:49.856Z,4.02
2018-01-20T09:56:15.313Z,4.19
2018-01-20T09:56:40.790Z,4.16
2018-01-20T09:57:06.268Z,4.17
2018-01-20T09:58:15.075Z,4.24
2018-01-20T09:58:40.567Z,4.17
2018-01-20T09:59:06.047Z,4.23
2018-01-20T09:59:31.523Z,4.17
2018-01-20T09:59:57.029Z,4.3
2018-01-20T10:00:22.510Z,4.17
2018-01-20T10:00:48.003Z,4.22
2018-01-20T10:01:13.486Z,4.23
2018-01-20T10:01:38.982Z,4.24
2018-01-20T10:02:04.464Z,4.19
2018-01-20T10:02:30.128Z,4.2
2018-01-20T10:02:55.478Z,4.1
2018-01-20T10:04:04.192Z,4.13
2018-01-20T10:04:29.796Z,4.2
2018-01-20T10:04:55.167Z,4.17
2018-01-20T10:05:20.634Z,4.16
2018-01-20T10:05:46.113Z,4.16
2018-01-20T10:06:11.642Z,4.13
2018-01-20T10:06:37.117Z,4.1
2018-01-20T10:07:02.622Z,3.96
2018-01-20T10:07:28.086Z,4.05
2018-01-20T10:08:26.644Z,4.05
2018-01-20T10:08:52.146Z,4.05
2018-01-20T10:09:17.611Z,3.95
2018-01-20T10:09:43.238Z,4.01
2018-01-20T10:10:08.702Z,3.98
2018-01-20T10:10:34.196Z,3.98
2018-01-20T10:10:59.663Z,3.96
2018-01-20T10:11:25.144Z,3.91
2018-01-20T10:11:50.670Z,3.99
2018-01-20T10:12:59.348Z,3.98
2018-01-20T10:13:24.838Z,3.94
2018-01-20T10:13:50.330Z,3.96
2018-01-20T10:14:15.804Z,4.02
2018-01-20T10:14:41.296Z,3.94
2018-01-20T10:15:06.779Z,3.95
2018-01-20T10:15:32.282Z,3.99
2018-01-20T10:15:57.753Z,4.02
2018-01-20T10:16:23.235Z,3.98
2018-01-20T10:16:48.735Z,3.94
2018-01-20T10:17:14.227Z,4.05
2018-01-20T10:17:39.664Z,4.01
2018-01-20T10:18:05.159Z,4.02
2018-01-20T10:18:30.646Z,4.06
2018-01-20T10:18:56.131Z,4.04
2018-01-20T10:19:21.650Z,4.04
2018-01-20T10:19:47.139Z,3.99
2018-01-20T10:20:12.630Z,4.1
2018-01-20T10:20:38.169Z,4.02
2018-01-20T10:21:03.594Z,3.99
2018-01-20T10:21:29.055Z,4.06
2018-01-20T10:21:54.510Z,3.95
2018-01-20T10:22:19.963Z,4.05
2018-01-20T10:22:45.420Z,4.06
2018-01-20T10:23:10.998Z,3.99
2018-01-20T10:23:36.408Z,4.01
2018-01-20T10:24:01.898Z,4.01
2018-01-20T10:24:27.359Z,4.08
2018-01-20T10:24:52.848Z,4.02
2018-01-20T10:25:18.325Z,3.99
2018-01-20T10:25:43.814Z,4.08
2018-01-20T10:26:09.300Z,3.99
2018-01-20T10:26:34.784Z,3.91
2018-01-20T10:27:00.273Z,4.02
2018-01-20T10:27:25.717Z,4.08
2018-01-20T10:27:51.180Z,4.04
2018-01-20T10:28:16.651Z,3.98
2018-01-20T10:28:42.143Z,3.99
2018-01-20T10:29:07.632Z,3.98
2018-01-20T10:29:33.046Z,4.04
2018-01-20T10:29:58.523Z,4.13
2018-01-20T10:30:23.994Z,4.19
2018-01-20T10:30:49.457Z,4.13
2018-01-20T10:31:14.938Z,4.19
2018-01-20T10:31:40.415Z,4.2
2018-01-20T10:32:05.947Z,4.22
2018-01-20T10:32:31.461Z,4.24
2018-01-20T10:32:56.980Z,4.2
2018-01-20T10:33:22.388Z,4.2
2018-01-20T10:33:47.846Z,4.28
2018-01-20T10:34:13.352Z,4.34
2018-01-20T10:34:38.809Z,4.3
2018-01-20T10:35:04.296Z,4.34
2018-01-20T10:36:12.998Z,4.35
2018-01-20T10:36:38.492Z,4.3
2018-01-20T10:37:03.974Z,4.38
2018-01-20T10:37:29.484Z,4.35
2018-01-20T10:37:54.914Z,4.42
2018-01-20T10:38:20.391Z,4.41
2018-01-20T10:38:45.852Z,4.5
2018-01-20T10:39:44.348Z,4.5
2018-01-20T10:40:09.820Z,4.59
2018-01-20T10:40:35.310Z,4.58
2018-01-20T10:41:00.773Z,4.55
2018-01-20T10:41:26.295Z,4.52
2018-01-20T10:41:51.793Z,4.59
2018-01-20T10:42:17.243Z,4.6
2018-01-20T10:42:42.756Z,4.66
2018-01-20T10:43:08.235Z,4.66
2018-01-20T10:43:33.715Z,4.73
2018-01-20T10:43:59.219Z,4.71
2018-01-20T10:44:24.689Z,4.63
2018-01-20T10:45:18.111Z,4.62
2018-01-20T10:45:43.581Z,4.63
2018-01-20T10:46:09.094Z,4.63
2018-01-20T10:46:34.543Z,4.66
2018-01-20T10:47:00.052Z,4.66
2018-01-20T10:47:25.526Z,4.7
2018-01-20T10:47:51.065Z,4.68
2018-01-20T10:48:16.526Z,4.74
2018-01-20T10:48:42.034Z,4.62
2018-01-20T10:49:07.567Z,4.71
2018-01-20T10:49:33.054Z,4.7
2018-01-20T10:49:58.565Z,4.68
2018-01-20T10:50:24.057Z,4.7
2018-01-20T10:50:49.533Z,4.67
2018-01-20T10:51:15.048Z,4.75
2018-01-20T10:51:40.534Z,4.75
2018-01-20T10:52:06.005Z,4.7
2018-01-20T10:52:31.588Z,4.77
2018-01-20T10:52:57.111Z,4.8
2018-01-20T10:53:22.604Z,4.77
2018-01-20T10:53:48.053Z,4.71
2018-01-20T10:54:13.565Z,4.73
2018-01-20T10:54:39.066Z,4.7
2018-01-20T10:55:04.573Z,4.74
2018-01-20T10:55:58.005Z,4.74
2018-01-20T10:56:23.487Z,4.77
2018-01-20T10:56:48.975Z,4.8
2018-01-20T10:57:14.476Z,4.8
2018-01-20T10:57:39.947Z,4.93
2018-01-20T10:58:05.430Z,4.94
2018-01-20T10:58:30.894Z,4.82
2018-01-20T10:58:56.386Z,4.84
2018-01-20T10:59:21.921Z,4.93
2018-01-20T10:59:47.404Z,4.84
2018-01-20T11:00:12.855Z,4.84
2018-01-20T11:00:38.335Z,4.89
2018-01-20T11:01:36.837Z,4.89
2018-01-20T11:02:02.369Z,4.94
2018-01-20T11:02:27.862Z,4.94
2018-01-20T11:02:53.322Z,4.9
2018-01-20T11:03:18.869Z,4.84
2018-01-20T11:03:44.379Z,4.89
2018-01-20T11:04:09.853Z,4.97
2018-01-20T11:04:35.370Z,4.9
2018-01-20T11:05:00.855Z,4.94
2018-01-20T11:05:54.269Z,4.84
2018-01-20T11:06:19.749Z,4.9
2018-01-20T11:06:45.246Z,4.87
2018-01-20T11:07:34.539Z,4.84
2018-01-20T11:07:59.993Z,4.93
2018-01-20T11:08:25.495Z,4.93
2018-01-20T11:08:50.989Z,4.87
2018-01-20T11:09:16.552Z,4.92
2018-01-20T11:09:42.074Z,4.82
2018-01-20T11:10:51.786Z,4.94